ITY1318 LIPE-LIRF
Flight info
| Callsign | ITY1318 |
|---|---|
| Flight time | 0h 39m |
| Altitude | 31000 |
| Route | LOMED DCT KUGIX DCT IBRID DCT AMTEL Q411 RITEB |
| Aircraft | A20N/M-SDE2E3FGHIRWXY/LB1 |
Departure
| Time | 2026-05-06 15:34 |
|---|---|
| Airport | Bologna Guglielmo Marconi Airport (LIPE) |
Arrival
| Time | 2026-05-06 16:14 |
|---|---|
| Airport | Rome–Fiumicino Leonardo da Vinci International Airport (LIRF) |
| Time | Latitude | Longitude | Altitude | Speed | Heading |
|---|---|---|---|---|---|
| 2026-05-06 14:49 | 44.53059 | 11.29375 | 127 ft | 0 kts | 204° |
| 2026-05-06 15:20 | 44.53060 | 11.29376 | 127 ft | 1 kts | 204° |
| 2026-05-06 15:20 | 44.53074 | 11.29384 | 127 ft | 2 kts | 213° |
| 2026-05-06 15:20 | 44.53084 | 11.29399 | 126 ft | 2 kts | 238° |
| 2026-05-06 15:21 | 44.53090 | 11.29419 | 127 ft | 2 kts | 261° |
| 2026-05-06 15:21 | 44.53090 | 11.29440 | 127 ft | 2 kts | 283° |
| 2026-05-06 15:21 | 44.53087 | 11.29451 | 127 ft | 1 kts | 296° |
| 2026-05-06 15:21 | 44.53085 | 11.29458 | 127 ft | 0 kts | 297° |
| 2026-05-06 15:24 | 44.53085 | 11.29456 | 127 ft | 0 kts | 297° |
| 2026-05-06 15:24 | 44.53090 | 11.29444 | 127 ft | 1 kts | 296° |
| 2026-05-06 15:24 | 44.53097 | 11.29422 | 126 ft | 3 kts | 297° |
| 2026-05-06 15:25 | 44.53109 | 11.29391 | 126 ft | 4 kts | 295° |
| 2026-05-06 15:25 | 44.53129 | 11.29363 | 126 ft | 4 kts | 352° |
| 2026-05-06 15:25 | 44.53164 | 11.29362 | 126 ft | 5 kts | 330° |
| 2026-05-06 15:25 | 44.53187 | 11.29313 | 125 ft | 6 kts | 296° |
| 2026-05-06 15:26 | 44.53210 | 11.29250 | 125 ft | 7 kts | 296° |
| 2026-05-06 15:26 | 44.53236 | 11.29176 | 124 ft | 8 kts | 296° |
| 2026-05-06 15:26 | 44.53266 | 11.29095 | 123 ft | 9 kts | 297° |
| 2026-05-06 15:26 | 44.53292 | 11.29021 | 122 ft | 8 kts | 296° |
| 2026-05-06 15:27 | 44.53321 | 11.28940 | 121 ft | 10 kts | 296° |
| 2026-05-06 15:27 | 44.53354 | 11.28849 | 119 ft | 10 kts | 296° |
| 2026-05-06 15:27 | 44.53376 | 11.28788 | 119 ft | 5 kts | 296° |
| 2026-05-06 15:27 | 44.53394 | 11.28738 | 118 ft | 4 kts | 296° |
| 2026-05-06 15:28 | 44.53411 | 11.28689 | 117 ft | 6 kts | 297° |
| 2026-05-06 15:28 | 44.53431 | 11.28636 | 116 ft | 6 kts | 296° |
| 2026-05-06 15:28 | 44.53455 | 11.28569 | 116 ft | 8 kts | 296° |
| 2026-05-06 15:28 | 44.53485 | 11.28488 | 115 ft | 9 kts | 297° |
| 2026-05-06 15:29 | 44.53508 | 11.28422 | 115 ft | 7 kts | 296° |
| 2026-05-06 15:29 | 44.53532 | 11.28355 | 115 ft | 7 kts | 295° |
| 2026-05-06 15:29 | 44.53553 | 11.28294 | 115 ft | 7 kts | 295° |
| 2026-05-06 15:29 | 44.53579 | 11.28222 | 115 ft | 8 kts | 297° |
| 2026-05-06 15:30 | 44.53608 | 11.28143 | 115 ft | 9 kts | 296° |
| 2026-05-06 15:30 | 44.53638 | 11.28059 | 116 ft | 9 kts | 296° |
| 2026-05-06 15:30 | 44.53669 | 11.27973 | 117 ft | 10 kts | 296° |
| 2026-05-06 15:30 | 44.53701 | 11.27883 | 118 ft | 10 kts | 296° |
| 2026-05-06 15:31 | 44.53732 | 11.27796 | 119 ft | 10 kts | 296° |
| 2026-05-06 15:31 | 44.53763 | 11.27710 | 120 ft | 9 kts | 297° |
| 2026-05-06 15:31 | 44.53794 | 11.27624 | 121 ft | 9 kts | 297° |
| 2026-05-06 15:32 | 44.53856 | 11.27453 | 123 ft | 9 kts | 297° |
| 2026-05-06 15:32 | 44.53889 | 11.27369 | 123 ft | 9 kts | 306° |
| 2026-05-06 15:32 | 44.53942 | 11.27303 | 124 ft | 10 kts | 325° |
| 2026-05-06 15:32 | 44.54008 | 11.27242 | 124 ft | 11 kts | 329° |
| 2026-05-06 15:33 | 44.54085 | 11.27228 | 125 ft | 11 kts | 33° |
| 2026-05-06 15:33 | 44.54094 | 11.27339 | 124 ft | 14 kts | 113° |
| 2026-05-06 15:33 | 44.53937 | 11.27768 | 120 ft | 88 kts | 116° |
| 2026-05-06 15:33 | 44.53551 | 11.28847 | 117 ft | 155 kts | 117° |
| 2026-05-06 15:34 | 44.53007 | 11.30323 | 486 ft | 178 kts | 118° |
| 2026-05-06 15:34 | 44.52578 | 11.31896 | 1320 ft | 178 kts | 95° |
| 2026-05-06 15:34 | 44.52967 | 11.33483 | 2056 ft | 181 kts | 44° |
| 2026-05-06 15:34 | 44.54050 | 11.34308 | 2739 ft | 180 kts | 18° |
| 2026-05-06 15:35 | 44.55238 | 11.34854 | 3370 ft | 183 kts | 17° |
| 2026-05-06 15:35 | 44.56459 | 11.35510 | 3824 ft | 199 kts | 22° |
| 2026-05-06 15:35 | 44.57761 | 11.36367 | 4270 ft | 216 kts | 25° |
| 2026-05-06 15:35 | 44.59124 | 11.37385 | 4782 ft | 229 kts | 27° |
| 2026-05-06 15:36 | 44.60524 | 11.38493 | 5446 ft | 235 kts | 28° |
| 2026-05-06 15:36 | 44.61945 | 11.39643 | 6139 ft | 239 kts | 28° |
| 2026-05-06 15:36 | 44.63386 | 11.40814 | 6840 ft | 243 kts | 28° |
| 2026-05-06 15:36 | 44.64873 | 11.41998 | 7541 ft | 245 kts | 23° |
| 2026-05-06 15:37 | 44.66519 | 11.42483 | 7940 ft | 255 kts | 347° |
| 2026-05-06 15:37 | 44.68138 | 11.41511 | 8378 ft | 258 kts | 312° |
| 2026-05-06 15:37 | 44.69096 | 11.39472 | 9116 ft | 250 kts | 281° |
| 2026-05-06 15:37 | 44.69163 | 11.37116 | 9921 ft | 244 kts | 252° |
| 2026-05-06 15:38 | 44.68384 | 11.35062 | 10656 ft | 245 kts | 225° |
| 2026-05-06 15:38 | 44.67102 | 11.33474 | 11446 ft | 247 kts | 221° |
| 2026-05-06 15:38 | 44.65826 | 11.31879 | 12209 ft | 249 kts | 222° |
| 2026-05-06 15:38 | 44.64545 | 11.30251 | 12965 ft | 252 kts | 222° |
| 2026-05-06 15:39 | 44.63249 | 11.28608 | 13716 ft | 254 kts | 221° |
| 2026-05-06 15:39 | 44.61918 | 11.26993 | 14375 ft | 256 kts | 219° |
| 2026-05-06 15:39 | 44.60480 | 11.25424 | 14768 ft | 272 kts | 218° |
| 2026-05-06 15:39 | 44.58910 | 11.23725 | 14857 ft | 298 kts | 218° |
| 2026-05-06 15:40 | 44.57219 | 11.21898 | 14862 ft | 324 kts | 218° |
| 2026-05-06 15:40 | 44.55396 | 11.19933 | 14857 ft | 335 kts | 218° |
| 2026-05-06 15:40 | 44.53513 | 11.17904 | 15199 ft | 344 kts | 218° |
| 2026-05-06 15:40 | 44.51648 | 11.15895 | 16001 ft | 343 kts | 218° |
| 2026-05-06 15:41 | 44.49744 | 11.13850 | 16771 ft | 343 kts | 218° |
| 2026-05-06 15:41 | 44.47864 | 11.11828 | 17435 ft | 345 kts | 218° |
| 2026-05-06 15:41 | 44.45918 | 11.09875 | 18038 ft | 349 kts | 214° |
| 2026-05-06 15:41 | 44.43805 | 11.08131 | 18679 ft | 352 kts | 210° |
| 2026-05-06 15:42 | 44.41597 | 11.06661 | 19272 ft | 357 kts | 205° |
| 2026-05-06 15:42 | 44.39302 | 11.05344 | 19838 ft | 360 kts | 205° |
| 2026-05-06 15:42 | 44.36989 | 11.04036 | 20458 ft | 362 kts | 204° |
| 2026-05-06 15:42 | 44.34660 | 11.02724 | 21072 ft | 364 kts | 204° |
| 2026-05-06 15:43 | 44.32287 | 11.01392 | 21656 ft | 366 kts | 204° |
| 2026-05-06 15:43 | 44.29921 | 11.00067 | 22231 ft | 368 kts | 204° |
| 2026-05-06 15:43 | 44.27560 | 10.98744 | 22783 ft | 370 kts | 205° |
| 2026-05-06 15:43 | 44.25112 | 10.97537 | 23313 ft | 375 kts | 198° |
| 2026-05-06 15:44 | 44.22533 | 10.96904 | 23803 ft | 383 kts | 189° |
| 2026-05-06 15:44 | 44.19831 | 10.96881 | 24123 ft | 396 kts | 180° |
| 2026-05-06 15:44 | 44.17076 | 10.97370 | 24625 ft | 400 kts | 177° |
| 2026-05-06 15:44 | 44.14331 | 10.97930 | 25126 ft | 402 kts | 177° |
| 2026-05-06 15:45 | 44.11582 | 10.98495 | 25548 ft | 405 kts | 177° |
| 2026-05-06 15:45 | 44.08761 | 10.99075 | 25966 ft | 408 kts | 178° |
| 2026-05-06 15:45 | 44.05973 | 10.99687 | 26369 ft | 413 kts | 174° |
| 2026-05-06 15:45 | 44.03158 | 11.00705 | 26901 ft | 418 kts | 168° |
| 2026-05-06 15:46 | 44.00437 | 11.02158 | 27506 ft | 421 kts | 162° |
| 2026-05-06 15:46 | 43.97842 | 11.03984 | 28071 ft | 423 kts | 159° |
| 2026-05-06 15:46 | 43.95246 | 11.05948 | 28586 ft | 423 kts | 158° |
| 2026-05-06 15:46 | 43.92702 | 11.07891 | 29048 ft | 422 kts | 158° |
| 2026-05-06 15:47 | 43.90125 | 11.09856 | 29493 ft | 423 kts | 158° |
| 2026-05-06 15:47 | 43.87545 | 11.11817 | 29826 ft | 425 kts | 158° |
| 2026-05-06 15:47 | 43.84930 | 11.13800 | 30142 ft | 428 kts | 159° |
| 2026-05-06 15:47 | 43.82346 | 11.15756 | 30463 ft | 429 kts | 158° |
| 2026-05-06 15:48 | 43.79710 | 11.17749 | 30787 ft | 431 kts | 158° |
| 2026-05-06 15:48 | 43.77059 | 11.19751 | 30901 ft | 433 kts | 158° |
| 2026-05-06 15:48 | 43.71772 | 11.23744 | 30908 ft | 434 kts | 158° |
| 2026-05-06 15:49 | 43.66501 | 11.27716 | 30909 ft | 434 kts | 158° |
| 2026-05-06 15:49 | 43.61269 | 11.31964 | 30915 ft | 439 kts | 153° |
| 2026-05-06 15:50 | 43.56229 | 11.36743 | 30911 ft | 440 kts | 152° |
| 2026-05-06 15:50 | 43.51226 | 11.41487 | 30915 ft | 439 kts | 152° |
| 2026-05-06 15:51 | 43.48708 | 11.43853 | 30692 ft | 439 kts | 152° |
| 2026-05-06 15:51 | 43.46179 | 11.46221 | 30419 ft | 437 kts | 153° |
| 2026-05-06 15:51 | 43.43690 | 11.48546 | 30151 ft | 430 kts | 153° |
| 2026-05-06 15:51 | 43.41237 | 11.50828 | 29879 ft | 421 kts | 153° |
| 2026-05-06 15:52 | 43.38824 | 11.53060 | 29609 ft | 420 kts | 153° |
| 2026-05-06 15:52 | 43.36417 | 11.55281 | 29340 ft | 419 kts | 153° |
| 2026-05-06 15:52 | 43.33971 | 11.57541 | 29068 ft | 419 kts | 153° |
| 2026-05-06 15:52 | 43.31560 | 11.59770 | 28738 ft | 421 kts | 153° |
| 2026-05-06 15:53 | 43.29134 | 11.62012 | 28275 ft | 422 kts | 153° |
| 2026-05-06 15:53 | 43.26703 | 11.64262 | 27709 ft | 422 kts | 152° |
| 2026-05-06 15:53 | 43.24289 | 11.66495 | 27130 ft | 420 kts | 153° |
| 2026-05-06 15:53 | 43.21869 | 11.68730 | 26533 ft | 421 kts | 153° |
| 2026-05-06 15:54 | 43.19461 | 11.70955 | 25874 ft | 421 kts | 152° |
| 2026-05-06 15:54 | 43.17038 | 11.73192 | 25226 ft | 420 kts | 152° |
| 2026-05-06 15:54 | 43.14611 | 11.75433 | 24797 ft | 415 kts | 152° |
| 2026-05-06 15:54 | 43.12246 | 11.77613 | 24344 ft | 412 kts | 152° |
| 2026-05-06 15:55 | 43.09882 | 11.79790 | 23889 ft | 409 kts | 152° |
| 2026-05-06 15:55 | 43.07534 | 11.81950 | 23429 ft | 405 kts | 152° |
| 2026-05-06 15:55 | 43.05231 | 11.84067 | 22976 ft | 402 kts | 152° |
| 2026-05-06 15:55 | 43.02891 | 11.86214 | 22482 ft | 399 kts | 152° |
| 2026-05-06 15:56 | 43.00614 | 11.88301 | 21980 ft | 396 kts | 152° |
| 2026-05-06 15:56 | 42.98338 | 11.90385 | 21455 ft | 393 kts | 152° |
| 2026-05-06 15:56 | 42.96080 | 11.92450 | 20931 ft | 391 kts | 151° |
| 2026-05-06 15:56 | 42.93840 | 11.94501 | 20428 ft | 388 kts | 151° |
| 2026-05-06 15:57 | 42.91592 | 11.96553 | 19912 ft | 386 kts | 151° |
| 2026-05-06 15:57 | 42.89368 | 11.98583 | 19406 ft | 384 kts | 150° |
| 2026-05-06 15:57 | 42.87181 | 12.00577 | 18895 ft | 382 kts | 150° |
| 2026-05-06 15:57 | 42.84968 | 12.02596 | 18384 ft | 380 kts | 150° |
| 2026-05-06 15:58 | 42.82775 | 12.04594 | 17872 ft | 378 kts | 150° |
| 2026-05-06 15:58 | 42.80608 | 12.06567 | 17360 ft | 376 kts | 150° |
| 2026-05-06 15:58 | 42.78466 | 12.08520 | 17051 ft | 367 kts | 150° |
| 2026-05-06 15:58 | 42.76384 | 12.10416 | 16891 ft | 355 kts | 150° |
| 2026-05-06 15:59 | 42.74352 | 12.12263 | 16726 ft | 343 kts | 150° |
| 2026-05-06 15:59 | 42.72394 | 12.14040 | 16495 ft | 334 kts | 150° |
| 2026-05-06 15:59 | 42.70495 | 12.15762 | 16346 ft | 323 kts | 150° |
| 2026-05-06 15:59 | 42.68629 | 12.17325 | 16149 ft | 313 kts | 155° |
| 2026-05-06 16:00 | 42.66617 | 12.18249 | 15717 ft | 303 kts | 179° |
| 2026-05-06 16:00 | 42.64543 | 12.18296 | 15367 ft | 298 kts | 184° |
| 2026-05-06 16:00 | 42.62483 | 12.18228 | 14965 ft | 298 kts | 184° |
| 2026-05-06 16:00 | 42.60409 | 12.18182 | 14553 ft | 297 kts | 183° |
| 2026-05-06 16:01 | 42.58340 | 12.18173 | 14170 ft | 296 kts | 183° |
| 2026-05-06 16:01 | 42.56295 | 12.18189 | 13792 ft | 294 kts | 182° |
| 2026-05-06 16:01 | 42.54263 | 12.18218 | 13406 ft | 293 kts | 182° |
| 2026-05-06 16:01 | 42.52227 | 12.18256 | 13028 ft | 292 kts | 182° |
| 2026-05-06 16:02 | 42.50205 | 12.18301 | 12656 ft | 290 kts | 182° |
| 2026-05-06 16:02 | 42.48195 | 12.18350 | 12297 ft | 288 kts | 182° |
| 2026-05-06 16:02 | 42.46200 | 12.18401 | 11935 ft | 286 kts | 181° |
| 2026-05-06 16:02 | 42.44211 | 12.18451 | 11564 ft | 284 kts | 181° |
| 2026-05-06 16:03 | 42.42247 | 12.18503 | 11205 ft | 282 kts | 181° |
| 2026-05-06 16:03 | 42.40299 | 12.18554 | 10845 ft | 281 kts | 181° |
| 2026-05-06 16:03 | 42.38340 | 12.18605 | 10481 ft | 279 kts | 181° |
| 2026-05-06 16:03 | 42.36403 | 12.18656 | 10115 ft | 277 kts | 181° |
| 2026-05-06 16:04 | 42.34492 | 12.18706 | 9767 ft | 275 kts | 181° |
| 2026-05-06 16:04 | 42.32589 | 12.18756 | 9400 ft | 274 kts | 181° |
| 2026-05-06 16:04 | 42.30680 | 12.18805 | 9044 ft | 272 kts | 181° |
| 2026-05-06 16:04 | 42.28798 | 12.18851 | 8691 ft | 270 kts | 181° |
| 2026-05-06 16:05 | 42.26926 | 12.18895 | 8329 ft | 269 kts | 181° |
| 2026-05-06 16:05 | 42.25065 | 12.18942 | 7950 ft | 267 kts | 181° |
| 2026-05-06 16:05 | 42.23213 | 12.18990 | 7559 ft | 267 kts | 181° |
| 2026-05-06 16:05 | 42.21381 | 12.19037 | 7060 ft | 264 kts | 180° |
| 2026-05-06 16:06 | 42.19548 | 12.19083 | 6529 ft | 259 kts | 180° |
| 2026-05-06 16:06 | 42.17774 | 12.19129 | 5978 ft | 253 kts | 180° |
| 2026-05-06 16:06 | 42.16043 | 12.19176 | 5432 ft | 248 kts | 180° |
| 2026-05-06 16:06 | 42.14332 | 12.19210 | 4889 ft | 245 kts | 181° |
| 2026-05-06 16:07 | 42.12644 | 12.19190 | 4356 ft | 243 kts | 181° |
| 2026-05-06 16:07 | 42.10978 | 12.19157 | 3814 ft | 240 kts | 181° |
| 2026-05-06 16:07 | 42.09330 | 12.19127 | 3357 ft | 233 kts | 181° |
| 2026-05-06 16:07 | 42.07702 | 12.19105 | 3114 ft | 230 kts | 181° |
| 2026-05-06 16:08 | 42.06137 | 12.19086 | 2986 ft | 218 kts | 181° |
| 2026-05-06 16:08 | 42.04677 | 12.19069 | 2969 ft | 203 kts | 181° |
| 2026-05-06 16:08 | 42.03301 | 12.19015 | 2974 ft | 196 kts | 181° |
| 2026-05-06 16:08 | 42.02003 | 12.19109 | 3044 ft | 180 kts | 173° |
| 2026-05-06 16:09 | 42.00767 | 12.19432 | 3009 ft | 179 kts | 167° |
| 2026-05-06 16:09 | 41.99571 | 12.19879 | 2980 ft | 179 kts | 165° |
| 2026-05-06 16:09 | 41.98383 | 12.20369 | 2788 ft | 176 kts | 164° |
| 2026-05-06 16:09 | 41.97236 | 12.20854 | 2554 ft | 171 kts | 163° |
| 2026-05-06 16:10 | 41.96116 | 12.21327 | 2352 ft | 161 kts | 163° |
| 2026-05-06 16:10 | 41.95116 | 12.21750 | 2130 ft | 145 kts | 163° |
| 2026-05-06 16:10 | 41.94196 | 12.22136 | 1917 ft | 132 kts | 164° |
| 2026-05-06 16:10 | 41.93325 | 12.22500 | 1755 ft | 131 kts | 164° |
| 2026-05-06 16:11 | 41.92452 | 12.22864 | 1597 ft | 130 kts | 163° |
| 2026-05-06 16:11 | 41.91588 | 12.23226 | 1436 ft | 130 kts | 164° |
| 2026-05-06 16:11 | 41.90722 | 12.23587 | 1274 ft | 130 kts | 163° |
| 2026-05-06 16:11 | 41.89867 | 12.23952 | 1104 ft | 130 kts | 163° |
| 2026-05-06 16:12 | 41.89000 | 12.24313 | 942 ft | 130 kts | 165° |
| 2026-05-06 16:12 | 41.88138 | 12.24648 | 739 ft | 129 kts | 164° |
| 2026-05-06 16:12 | 41.87280 | 12.24986 | 568 ft | 129 kts | 163° |
| 2026-05-06 16:12 | 41.86423 | 12.25362 | 428 ft | 130 kts | 162° |
| 2026-05-06 16:13 | 41.85563 | 12.25740 | 272 ft | 130 kts | 163° |
| 2026-05-06 16:13 | 41.84702 | 12.26110 | 109 ft | 129 kts | 163° |
| 2026-05-06 16:13 | 41.83853 | 12.26469 | 26 ft | 119 kts | 162° |
| 2026-05-06 16:13 | 41.83229 | 12.26737 | 24 ft | 66 kts | 163° |
| 2026-05-06 16:14 | 41.82876 | 12.26882 | 24 ft | 49 kts | 162° |
| 2026-05-06 16:14 | 41.82567 | 12.27011 | 24 ft | 43 kts | 163° |
| 2026-05-06 16:14 | 41.82290 | 12.27122 | 24 ft | 38 kts | 166° |
| 2026-05-06 16:14 | 41.82044 | 12.27138 | 24 ft | 33 kts | 189° |
| 2026-05-06 16:15 | 41.81830 | 12.27077 | 24 ft | 29 kts | 191° |
| 2026-05-06 16:15 | 41.81648 | 12.27071 | 24 ft | 21 kts | 166° |
| 2026-05-06 16:15 | 41.81507 | 12.27124 | 24 ft | 20 kts | 162° |
| 2026-05-06 16:15 | 41.81373 | 12.27184 | 24 ft | 19 kts | 162° |
| 2026-05-06 16:16 | 41.81242 | 12.27238 | 24 ft | 19 kts | 163° |
| 2026-05-06 16:16 | 41.81115 | 12.27292 | 24 ft | 18 kts | 161° |
| 2026-05-06 16:16 | 41.80990 | 12.27346 | 24 ft | 18 kts | 167° |
| 2026-05-06 16:16 | 41.80864 | 12.27346 | 24 ft | 18 kts | 188° |
| 2026-05-06 16:17 | 41.80741 | 12.27317 | 24 ft | 17 kts | 195° |
| 2026-05-06 16:17 | 41.80654 | 12.27206 | 24 ft | 17 kts | 247° |
| 2026-05-06 16:17 | 41.80612 | 12.27055 | 24 ft | 17 kts | 249° |
| 2026-05-06 16:17 | 41.80569 | 12.26898 | 24 ft | 17 kts | 250° |
| 2026-05-06 16:18 | 41.80526 | 12.26744 | 24 ft | 17 kts | 249° |
| 2026-05-06 16:18 | 41.80489 | 12.26613 | 24 ft | 11 kts | 249° |
| 2026-05-06 16:18 | 41.80470 | 12.26540 | 24 ft | 5 kts | 250° |
| 2026-05-06 16:18 | 41.80455 | 12.26489 | 24 ft | 5 kts | 249° |
| 2026-05-06 16:19 | 41.80446 | 12.26456 | 24 ft | 3 kts | 249° |
| 2026-05-06 16:19 | 41.80436 | 12.26417 | 24 ft | 5 kts | 250° |
| 2026-05-06 16:19 | 41.80422 | 12.26366 | 24 ft | 6 kts | 250° |
| 2026-05-06 16:19 | 41.80405 | 12.26305 | 24 ft | 7 kts | 248° |
| 2026-05-06 16:20 | 41.80386 | 12.26234 | 24 ft | 8 kts | 252° |
| 2026-05-06 16:20 | 41.80358 | 12.26155 | 24 ft | 9 kts | 236° |
| 2026-05-06 16:20 | 41.80306 | 12.26092 | 24 ft | 10 kts | 203° |
| 2026-05-06 16:20 | 41.80233 | 12.26051 | 24 ft | 11 kts | 205° |
| 2026-05-06 16:21 | 41.80156 | 12.26003 | 24 ft | 12 kts | 204° |
| 2026-05-06 16:21 | 41.80074 | 12.25953 | 24 ft | 13 kts | 204° |
| 2026-05-06 16:21 | 41.79989 | 12.25903 | 24 ft | 13 kts | 202° |
| 2026-05-06 16:21 | 41.79900 | 12.25846 | 24 ft | 14 kts | 205° |
| 2026-05-06 16:22 | 41.79808 | 12.25789 | 24 ft | 13 kts | 205° |
| 2026-05-06 16:22 | 41.79754 | 12.25747 | 24 ft | 5 kts | 248° |
| 2026-05-06 16:22 | 41.79766 | 12.25694 | 24 ft | 6 kts | 296° |
| 2026-05-06 16:22 | 41.79774 | 12.25672 | 24 ft | 0 kts | 294° |